sensor_id;sensor_type;location;lat;lon;timestamp;P1;durP1;ratioP1;P2;durP2;ratioP2
29416;SDS011;28421;51.030;4.006;2022-11-24T06:03:26;7.45;;;1.70;;
29416;SDS011;28421;51.030;4.006;2022-11-24T06:05:51;8.82;;;2.55;;
29416;SDS011;28421;51.030;4.006;2022-11-24T06:08:16;15.05;;;2.03;;
29416;SDS011;28421;51.030;4.006;2022-11-24T06:10:42;5.57;;;1.38;;
29416;SDS011;28421;51.030;4.006;2022-11-24T06:13:07;10.45;;;2.08;;
29416;SDS011;28421;51.030;4.006;2022-11-24T06:15:33;5.65;;;2.05;;
29416;SDS011;28421;51.030;4.006;2022-11-24T06:17:59;3.58;;;1.65;;
29416;SDS011;28421;51.030;4.006;2022-11-24T06:20:24;7.00;;;1.88;;
29416;SDS011;28421;51.030;4.006;2022-11-24T06:22:50;4.85;;;1.42;;
29416;SDS011;28421;51.030;4.006;2022-11-24T06:25:16;10.30;;;2.50;;
29416;SDS011;28421;51.030;4.006;2022-11-24T06:27:42;5.38;;;2.15;;
29416;SDS011;28421;51.030;4.006;2022-11-24T06:30:08;4.40;;;1.60;;
29416;SDS011;28421;51.030;4.006;2022-11-24T06:32:33;5.88;;;1.83;;
29416;SDS011;28421;51.030;4.006;2022-11-24T06:34:59;5.80;;;1.73;;
29416;SDS011;28421;51.030;4.006;2022-11-24T06:37:24;9.65;;;1.92;;
29416;SDS011;28421;51.030;4.006;2022-11-24T06:39:50;3.88;;;1.88;;
29416;SDS011;28421;51.030;4.006;2022-11-24T06:42:15;9.00;;;1.67;;
29416;SDS011;28421;51.030;4.006;2022-11-24T06:44:45;8.55;;;2.47;;
29416;SDS011;28421;51.030;4.006;2022-11-24T06:47:11;11.57;;;2.40;;
29416;SDS011;28421;51.030;4.006;2022-11-24T06:49:37;13.40;;;2.13;;
29416;SDS011;28421;51.030;4.006;2022-11-24T06:52:03;6.20;;;2.72;;
29416;SDS011;28421;51.030;4.006;2022-11-24T06:54:28;6.32;;;2.05;;
29416;SDS011;28421;51.030;4.006;2022-11-24T06:56:57;13.32;;;2.35;;
29416;SDS011;28421;51.030;4.006;2022-11-24T06:59:23;6.10;;;1.92;;
29416;SDS011;28421;51.030;4.006;2022-11-24T07:01:48;8.13;;;2.53;;
29416;SDS011;28421;51.030;4.006;2022-11-24T07:04:14;12.88;;;2.70;;
29416;SDS011;28421;51.030;4.006;2022-11-24T07:06:40;4.53;;;1.95;;
29416;SDS011;28421;51.030;4.006;2022-11-24T07:09:06;9.82;;;2.10;;
29416;SDS011;28421;51.030;4.006;2022-11-24T07:11:35;11.52;;;1.98;;
29416;SDS011;28421;51.030;4.006;2022-11-24T07:14:01;9.15;;;2.60;;
29416;SDS011;28421;51.030;4.006;2022-11-24T07:16:27;12.30;;;2.20;;
29416;SDS011;28421;51.030;4.006;2022-11-24T07:18:53;12.00;;;2.58;;
29416;SDS011;28421;51.030;4.006;2022-11-24T07:21:19;7.88;;;1.75;;
29416;SDS011;28421;51.030;4.006;2022-11-24T07:23:49;12.95;;;2.97;;
29416;SDS011;28421;51.030;4.006;2022-11-24T07:26:16;9.25;;;2.85;;
29416;SDS011;28421;51.030;4.006;2022-11-24T07:28:41;10.95;;;2.67;;
29416;SDS011;28421;51.030;4.006;2022-11-24T07:31:11;10.80;;;2.38;;
29416;SDS011;28421;51.030;4.006;2022-11-24T07:33:38;5.90;;;2.15;;
29416;SDS011;28421;51.030;4.006;2022-11-24T07:36:04;14.10;;;2.28;;
29416;SDS011;28421;51.030;4.006;2022-11-24T07:38:31;10.80;;;2.25;;
29416;SDS011;28421;51.030;4.006;2022-11-24T07:40:58;4.32;;;1.58;;
29416;SDS011;28421;51.030;4.006;2022-11-24T07:43:27;17.48;;;2.17;;
29416;SDS011;28421;51.030;4.006;2022-11-24T07:45:55;7.03;;;2.45;;
29416;SDS011;28421;51.030;4.006;2022-11-24T07:48:20;9.27;;;2.63;;
29416;SDS011;28421;51.030;4.006;2022-11-24T07:50:46;8.63;;;2.95;;
29416;SDS011;28421;51.030;4.006;2022-11-24T07:53:11;11.85;;;3.05;;
29416;SDS011;28421;51.030;4.006;2022-11-24T07:55:36;14.68;;;2.83;;
29416;SDS011;28421;51.030;4.006;2022-11-24T07:58:02;16.10;;;2.60;;
29416;SDS011;28421;51.030;4.006;2022-11-24T08:00:27;9.43;;;2.90;;
29416;SDS011;28421;51.030;4.006;2022-11-24T08:02:53;12.32;;;3.28;;
29416;SDS011;28421;51.030;4.006;2022-11-24T08:05:19;6.65;;;2.15;;
29416;SDS011;28421;51.030;4.006;2022-11-24T08:07:44;9.55;;;2.10;;
29416;SDS011;28421;51.030;4.006;2022-11-24T08:10:09;12.55;;;2.53;;
29416;SDS011;28421;51.030;4.006;2022-11-24T08:12:35;14.52;;;2.72;;
29416;SDS011;28421;51.030;4.006;2022-11-24T08:15:00;7.90;;;1.85;;
29416;SDS011;28421;51.030;4.006;2022-11-24T08:17:27;9.95;;;2.45;;
29416;SDS011;28421;51.030;4.006;2022-11-24T08:19:52;10.00;;;2.45;;
29416;SDS011;28421;51.030;4.006;2022-11-24T08:22:18;11.15;;;2.70;;
29416;SDS011;28421;51.030;4.006;2022-11-24T08:24:43;11.07;;;2.85;;
29416;SDS011;28421;51.030;4.006;2022-11-24T08:27:12;11.23;;;2.67;;
29416;SDS011;28421;51.030;4.006;2022-11-24T08:29:39;13.45;;;3.55;;
29416;SDS011;28421;51.030;4.006;2022-11-24T08:32:05;11.45;;;3.13;;
29416;SDS011;28421;51.030;4.006;2022-11-24T08:34:30;14.98;;;3.33;;
29416;SDS011;28421;51.030;4.006;2022-11-24T08:36:55;12.82;;;3.13;;
29416;SDS011;28421;51.030;4.006;2022-11-24T08:39:21;16.58;;;4.18;;
29416;SDS011;28421;51.030;4.006;2022-11-24T08:41:46;17.92;;;4.72;;
29416;SDS011;28421;51.030;4.006;2022-11-24T08:44:12;14.45;;;2.95;;
29416;SDS011;28421;51.030;4.006;2022-11-24T08:46:40;22.58;;;3.78;;
29416;SDS011;28421;51.030;4.006;2022-11-24T08:49:05;13.55;;;3.13;;
29416;SDS011;28421;51.030;4.006;2022-11-24T08:51:31;14.40;;;4.53;;
29416;SDS011;28421;51.030;4.006;2022-11-24T08:53:57;12.18;;;3.38;;
29416;SDS011;28421;51.030;4.006;2022-11-24T08:56:24;11.32;;;4.18;;
29416;SDS011;28421;51.030;4.006;2022-11-24T08:58:52;17.15;;;4.22;;
29416;SDS011;28421;51.030;4.006;2022-11-24T09:01:18;8.55;;;3.17;;
29416;SDS011;28421;51.030;4.006;2022-11-24T09:03:44;10.95;;;3.28;;
29416;SDS011;28421;51.030;4.006;2022-11-24T09:06:11;10.80;;;3.05;;
29416;SDS011;28421;51.030;4.006;2022-11-24T09:08:37;19.33;;;4.57;;
29416;SDS011;28421;51.030;4.006;2022-11-24T09:11:04;23.77;;;3.95;;
29416;SDS011;28421;51.030;4.006;2022-11-24T09:13:31;8.30;;;3.30;;
29416;SDS011;28421;51.030;4.006;2022-11-24T09:16:13;28.20;;;7.38;;
29416;SDS011;28421;51.030;4.006;2022-11-24T09:18:41;23.70;;;5.43;;
29416;SDS011;28421;51.030;4.006;2022-11-24T09:21:11;21.15;;;7.18;;
29416;SDS011;28421;51.030;4.006;2022-11-24T09:23:38;14.75;;;5.28;;
29416;SDS011;28421;51.030;4.006;2022-11-24T09:26:05;11.88;;;4.80;;
29416;SDS011;28421;51.030;4.006;2022-11-24T09:28:32;12.60;;;3.20;;
29416;SDS011;28421;51.030;4.006;2022-11-24T09:31:01;19.60;;;4.47;;
29416;SDS011;28421;51.030;4.006;2022-11-24T09:33:28;17.58;;;3.92;;
29416;SDS011;28421;51.030;4.006;2022-11-24T09:35:55;19.33;;;3.70;;
29416;SDS011;28421;51.030;4.006;2022-11-24T09:38:20;15.77;;;3.33;;
29416;SDS011;28421;51.030;4.006;2022-11-24T09:40:47;11.98;;;3.17;;
29416;SDS011;28421;51.030;4.006;2022-11-24T09:48:35;14.10;;;3.20;;
29416;SDS011;28421;51.030;4.006;2022-11-24T09:51:07;20.98;;;3.25;;
29416;SDS011;28421;51.030;4.006;2022-11-24T09:53:36;19.05;;;3.05;;
29416;SDS011;28421;51.030;4.006;2022-11-24T09:58:46;13.38;;;4.60;;
29416;SDS011;28421;51.030;4.006;2022-11-24T10:03:48;17.50;;;3.85;;
29416;SDS011;28421;51.030;4.006;2022-11-24T10:09:30;16.15;;;4.05;;
29416;SDS011;28421;51.030;4.006;2022-11-24T10:31:54;9.93;;;3.00;;
29416;SDS011;28421;51.030;4.006;2022-11-24T10:34:26;17.40;;;3.47;;
29416;SDS011;28421;51.030;4.006;2022-11-24T10:37:00;12.40;;;4.50;;
29416;SDS011;28421;51.030;4.006;2022-11-24T10:47:36;15.52;;;4.93;;
29416;SDS011;28421;51.030;4.006;2022-11-24T10:50:21;19.05;;;4.35;;
29416;SDS011;28421;51.030;4.006;2022-11-24T10:53:08;13.82;;;4.18;;
29416;SDS011;28421;51.030;4.006;2022-11-24T10:58:37;21.80;;;5.97;;
29416;SDS011;28421;51.030;4.006;2022-11-24T11:03:50;36.85;;;4.28;;
29416;SDS011;28421;51.030;4.006;2022-11-24T11:06:29;12.10;;;3.33;;
29416;SDS011;28421;51.030;4.006;2022-11-24T11:11:36;11.40;;;4.38;;
29416;SDS011;28421;51.030;4.006;2022-11-24T11:14:04;15.45;;;2.13;;
29416;SDS011;28421;51.030;4.006;2022-11-24T11:16:41;16.77;;;3.22;;
29416;SDS011;28421;51.030;4.006;2022-11-24T11:22:23;7.93;;;2.47;;
29416;SDS011;28421;51.030;4.006;2022-11-24T11:25:00;8.10;;;2.45;;
29416;SDS011;28421;51.030;4.006;2022-11-24T11:27:39;13.43;;;3.25;;
29416;SDS011;28421;51.030;4.006;2022-11-24T11:32:49;9.43;;;2.70;;
29416;SDS011;28421;51.030;4.006;2022-11-24T11:35:17;20.75;;;2.78;;
29416;SDS011;28421;51.030;4.006;2022-11-24T11:37:42;12.18;;;4.05;;
29416;SDS011;28421;51.030;4.006;2022-11-24T11:40:13;8.60;;;3.28;;
29416;SDS011;28421;51.030;4.006;2022-11-24T11:42:46;16.05;;;3.00;;
29416;SDS011;28421;51.030;4.006;2022-11-24T11:45:19;14.13;;;3.00;;
29416;SDS011;28421;51.030;4.006;2022-11-24T11:56:41;14.30;;;3.75;;
29416;SDS011;28421;51.030;4.006;2022-11-24T11:59:16;18.60;;;3.28;;
29416;SDS011;28421;51.030;4.006;2022-11-24T12:12:26;11.73;;;2.92;;
29416;SDS011;28421;51.030;4.006;2022-11-24T12:18:17;19.08;;;3.58;;
29416;SDS011;28421;51.030;4.006;2022-11-24T12:35:20;13.90;;;3.00;;
29416;SDS011;28421;51.030;4.006;2022-11-24T12:38:21;7.65;;;2.50;;
29416;SDS011;28421;51.030;4.006;2022-11-24T12:41:01;14.93;;;3.42;;
29416;SDS011;28421;51.030;4.006;2022-11-24T12:51:13;16.60;;;3.03;;
29416;SDS011;28421;51.030;4.006;2022-11-24T12:53:42;13.80;;;2.72;;
29416;SDS011;28421;51.030;4.006;2022-11-24T12:56:11;17.70;;;3.80;;
29416;SDS011;28421;51.030;4.006;2022-11-24T13:03:53;16.02;;;2.72;;
29416;SDS011;28421;51.030;4.006;2022-11-24T13:09:06;13.30;;;2.58;;
29416;SDS011;28421;51.030;4.006;2022-11-24T13:11:36;13.15;;;4.07;;
29416;SDS011;28421;51.030;4.006;2022-11-24T13:14:05;18.30;;;2.80;;
29416;SDS011;28421;51.030;4.006;2022-11-24T13:16:47;10.23;;;2.83;;
29416;SDS011;28421;51.030;4.006;2022-11-24T13:19:16;19.75;;;3.60;;
29416;SDS011;28421;51.030;4.006;2022-11-24T13:21:46;13.73;;;3.00;;
29416;SDS011;28421;51.030;4.006;2022-11-24T13:29:34;8.68;;;3.03;;
29416;SDS011;28421;51.030;4.006;2022-11-24T13:37:46;17.60;;;3.55;;
29416;SDS011;28421;51.030;4.006;2022-11-24T13:42:23;13.88;;;4.07;;
29416;SDS011;28421;51.030;4.006;2022-11-24T13:45:46;15.20;;;3.50;;
29416;SDS011;28421;51.030;4.006;2022-11-24T14:01:09;16.23;;;3.45;;
29416;SDS011;28421;51.030;4.006;2022-11-24T14:03:46;16.17;;;3.33;;
29416;SDS011;28421;51.030;4.006;2022-11-24T14:06:20;13.95;;;4.00;;
29416;SDS011;28421;51.030;4.006;2022-11-24T14:09:24;12.57;;;3.38;;
29416;SDS011;28421;51.030;4.006;2022-11-24T14:14:43;13.45;;;3.35;;
29416;SDS011;28421;51.030;4.006;2022-11-24T14:19:42;15.40;;;3.40;;
29416;SDS011;28421;51.030;4.006;2022-11-24T14:22:17;14.35;;;4.10;;
29416;SDS011;28421;51.030;4.006;2022-11-24T14:24:50;11.60;;;3.00;;
29416;SDS011;28421;51.030;4.006;2022-11-24T14:27:19;15.48;;;3.22;;
29416;SDS011;28421;51.030;4.006;2022-11-24T14:29:57;14.15;;;3.60;;
29416;SDS011;28421;51.030;4.006;2022-11-24T14:32:24;7.93;;;3.00;;
29416;SDS011;28421;51.030;4.006;2022-11-24T14:34:50;21.17;;;4.45;;
29416;SDS011;28421;51.030;4.006;2022-11-24T14:37:16;22.67;;;4.35;;
29416;SDS011;28421;51.030;4.006;2022-11-24T14:39:43;14.70;;;3.67;;
29416;SDS011;28421;51.030;4.006;2022-11-24T14:42:19;19.27;;;3.70;;
29416;SDS011;28421;51.030;4.006;2022-11-24T14:44:54;15.23;;;3.22;;
29416;SDS011;28421;51.030;4.006;2022-11-24T14:49:53;8.98;;;2.88;;
29416;SDS011;28421;51.030;4.006;2022-11-24T14:52:20;18.05;;;3.88;;
29416;SDS011;28421;51.030;4.006;2022-11-24T14:54:51;15.40;;;3.25;;
29416;SDS011;28421;51.030;4.006;2022-11-24T15:02:39;13.18;;;3.55;;
29416;SDS011;28421;51.030;4.006;2022-11-24T15:05:16;21.88;;;5.00;;
29416;SDS011;28421;51.030;4.006;2022-11-24T15:07:47;14.50;;;3.80;;
29416;SDS011;28421;51.030;4.006;2022-11-24T15:12:52;8.88;;;2.75;;
29416;SDS011;28421;51.030;4.006;2022-11-24T15:15:22;16.48;;;3.55;;
29416;SDS011;28421;51.030;4.006;2022-11-24T15:17:52;19.88;;;3.95;;
29416;SDS011;28421;51.030;4.006;2022-11-24T15:28:25;21.63;;;4.22;;
29416;SDS011;28421;51.030;4.006;2022-11-24T15:30:51;21.85;;;4.53;;
29416;SDS011;28421;51.030;4.006;2022-11-24T15:33:18;22.88;;;4.15;;
29416;SDS011;28421;51.030;4.006;2022-11-24T15:35:45;20.00;;;3.88;;
29416;SDS011;28421;51.030;4.006;2022-11-24T15:38:11;12.00;;;2.92;;
29416;SDS011;28421;51.030;4.006;2022-11-24T15:40:37;17.67;;;3.15;;
29416;SDS011;28421;51.030;4.006;2022-11-24T15:46:03;15.20;;;3.75;;
29416;SDS011;28421;51.030;4.006;2022-11-24T15:48:29;18.40;;;4.05;;
29416;SDS011;28421;51.030;4.006;2022-11-24T15:50:55;17.17;;;4.13;;
29416;SDS011;28421;51.030;4.006;2022-11-24T15:56:17;11.57;;;3.80;;
29416;SDS011;28421;51.030;4.006;2022-11-24T15:58:48;17.33;;;4.13;;
29416;SDS011;28421;51.030;4.006;2022-11-24T16:01:13;16.20;;;4.97;;
29416;SDS011;28421;51.030;4.006;2022-11-24T16:03:39;16.83;;;4.22;;
29416;SDS011;28421;51.030;4.006;2022-11-24T16:06:04;22.67;;;3.75;;
29416;SDS011;28421;51.030;4.006;2022-11-24T16:08:30;22.77;;;4.85;;
29416;SDS011;28421;51.030;4.006;2022-11-24T16:10:56;17.80;;;3.85;;
29416;SDS011;28421;51.030;4.006;2022-11-24T16:13:21;19.05;;;3.45;;
29416;SDS011;28421;51.030;4.006;2022-11-24T16:15:47;15.98;;;4.85;;
29416;SDS011;28421;51.030;4.006;2022-11-24T16:18:13;24.75;;;5.25;;
29416;SDS011;28421;51.030;4.006;2022-11-24T16:20:39;25.23;;;5.70;;
29416;SDS011;28421;51.030;4.006;2022-11-24T16:23:05;9.77;;;4.00;;
29416;SDS011;28421;51.030;4.006;2022-11-24T16:25:30;16.33;;;3.90;;
29416;SDS011;28421;51.030;4.006;2022-11-24T16:27:56;12.32;;;4.72;;
29416;SDS011;28421;51.030;4.006;2022-11-24T16:30:22;16.98;;;5.32;;
29416;SDS011;28421;51.030;4.006;2022-11-24T16:32:47;24.73;;;4.97;;
29416;SDS011;28421;51.030;4.006;2022-11-24T16:35:13;17.92;;;4.07;;
29416;SDS011;28421;51.030;4.006;2022-11-24T16:37:38;20.73;;;4.13;;
29416;SDS011;28421;51.030;4.006;2022-11-24T16:40:04;22.30;;;3.60;;
29416;SDS011;28421;51.030;4.006;2022-11-24T16:42:30;19.85;;;4.53;;
29416;SDS011;28421;51.030;4.006;2022-11-24T16:44:55;13.15;;;3.40;;
29416;SDS011;28421;51.030;4.006;2022-11-24T16:47:21;22.30;;;3.90;;
29416;SDS011;28421;51.030;4.006;2022-11-24T16:49:46;25.08;;;6.20;;
29416;SDS011;28421;51.030;4.006;2022-11-24T16:52:12;20.52;;;5.32;;
29416;SDS011;28421;51.030;4.006;2022-11-24T16:54:38;23.88;;;4.93;;
29416;SDS011;28421;51.030;4.006;2022-11-24T16:57:03;19.05;;;4.60;;
29416;SDS011;28421;51.030;4.006;2022-11-24T16:59:30;19.80;;;4.00;;
29416;SDS011;28421;51.030;4.006;2022-11-24T17:01:55;12.85;;;3.60;;
29416;SDS011;28421;51.030;4.006;2022-11-24T17:04:21;17.42;;;3.60;;
29416;SDS011;28421;51.030;4.006;2022-11-24T17:06:46;12.25;;;3.42;;
29416;SDS011;28421;51.030;4.006;2022-11-24T17:09:11;22.20;;;3.75;;
29416;SDS011;28421;51.030;4.006;2022-11-24T17:11:37;18.48;;;3.33;;
29416;SDS011;28421;51.030;4.006;2022-11-24T17:14:02;16.17;;;3.83;;
29416;SDS011;28421;51.030;4.006;2022-11-24T17:16:28;23.60;;;4.55;;
29416;SDS011;28421;51.030;4.006;2022-11-24T17:18:53;17.00;;;3.30;;
29416;SDS011;28421;51.030;4.006;2022-11-24T17:21:20;14.60;;;4.25;;
29416;SDS011;28421;51.030;4.006;2022-11-24T17:23:51;20.55;;;4.10;;
29416;SDS011;28421;51.030;4.006;2022-11-24T17:26:18;16.98;;;4.93;;
29416;SDS011;28421;51.030;4.006;2022-11-24T17:28:43;8.82;;;3.50;;
29416;SDS011;28421;51.030;4.006;2022-11-24T17:33:37;16.63;;;3.88;;
29416;SDS011;28421;51.030;4.006;2022-11-24T17:36:03;17.92;;;3.90;;
29416;SDS011;28421;51.030;4.006;2022-11-24T17:38:29;15.43;;;3.67;;
29416;SDS011;28421;51.030;4.006;2022-11-24T17:40:55;19.40;;;4.25;;
29416;SDS011;28421;51.030;4.006;2022-11-24T17:43:21;14.65;;;4.47;;
29416;SDS011;28421;51.030;4.006;2022-11-24T17:45:53;11.50;;;4.15;;
29416;SDS011;28421;51.030;4.006;2022-11-24T17:48:23;14.30;;;4.80;;
29416;SDS011;28421;51.030;4.006;2022-11-24T17:53:51;19.02;;;4.63;;
29416;SDS011;28421;51.030;4.006;2022-11-24T17:56:20;15.80;;;3.65;;
29416;SDS011;28421;51.030;4.006;2022-11-24T17:58:50;20.23;;;3.42;;
29416;SDS011;28421;51.030;4.006;2022-11-24T18:01:18;18.05;;;4.75;;
29416;SDS011;28421;51.030;4.006;2022-11-24T18:03:44;18.00;;;4.63;;
29416;SDS011;28421;51.030;4.006;2022-11-24T18:06:10;12.45;;;3.45;;
29416;SDS011;28421;51.030;4.006;2022-11-24T18:08:38;28.42;;;4.68;;
29416;SDS011;28421;51.030;4.006;2022-11-24T18:11:08;18.75;;;4.75;;
29416;SDS011;28421;51.030;4.006;2022-11-24T18:13:37;21.63;;;4.90;;
29416;SDS011;28421;51.030;4.006;2022-11-24T18:16:04;13.75;;;3.97;;
29416;SDS011;28421;51.030;4.006;2022-11-24T18:18:31;21.95;;;3.83;;
29416;SDS011;28421;51.030;4.006;2022-11-24T18:20:57;14.02;;;3.72;;
29416;SDS011;28421;51.030;4.006;2022-11-24T18:23:24;21.58;;;4.32;;
29416;SDS011;28421;51.030;4.006;2022-11-24T18:25:53;30.75;;;4.45;;
29416;SDS011;28421;51.030;4.006;2022-11-24T18:28:20;17.52;;;4.03;;
29416;SDS011;28421;51.030;4.006;2022-11-24T18:30:45;18.75;;;3.90;;
29416;SDS011;28421;51.030;4.006;2022-11-24T18:33:11;11.40;;;3.47;;
29416;SDS011;28421;51.030;4.006;2022-11-24T18:35:36;20.40;;;4.07;;
29416;SDS011;28421;51.030;4.006;2022-11-24T18:38:04;13.10;;;4.25;;
29416;SDS011;28421;51.030;4.006;2022-11-24T18:40:30;15.40;;;4.70;;
29416;SDS011;28421;51.030;4.006;2022-11-24T18:42:55;24.45;;;5.53;;
29416;SDS011;28421;51.030;4.006;2022-11-24T18:45:21;26.02;;;4.35;;
29416;SDS011;28421;51.030;4.006;2022-11-24T18:47:46;13.38;;;4.90;;
29416;SDS011;28421;51.030;4.006;2022-11-24T18:50:11;18.42;;;5.72;;
29416;SDS011;28421;51.030;4.006;2022-11-24T18:52:37;23.80;;;5.05;;
29416;SDS011;28421;51.030;4.006;2022-11-24T18:55:02;21.60;;;4.78;;
29416;SDS011;28421;51.030;4.006;2022-11-24T18:57:29;18.70;;;3.58;;
29416;SDS011;28421;51.030;4.006;2022-11-24T18:59:55;24.40;;;4.55;;
29416;SDS011;28421;51.030;4.006;2022-11-24T19:02:21;18.40;;;5.00;;
29416;SDS011;28421;51.030;4.006;2022-11-24T19:04:47;27.38;;;4.05;;
29416;SDS011;28421;51.030;4.006;2022-11-24T19:07:12;19.35;;;3.67;;
29416;SDS011;28421;51.030;4.006;2022-11-24T19:09:41;26.13;;;5.00;;
29416;SDS011;28421;51.030;4.006;2022-11-24T19:12:07;17.77;;;3.72;;
29416;SDS011;28421;51.030;4.006;2022-11-24T19:14:32;28.02;;;4.88;;
29416;SDS011;28421;51.030;4.006;2022-11-24T19:16:59;18.52;;;3.47;;
29416;SDS011;28421;51.030;4.006;2022-11-24T19:19:26;11.40;;;3.33;;
29416;SDS011;28421;51.030;4.006;2022-11-24T19:21:53;16.30;;;3.88;;
29416;SDS011;28421;51.030;4.006;2022-11-24T19:24:19;21.75;;;3.75;;
29416;SDS011;28421;51.030;4.006;2022-11-24T19:26:44;21.75;;;3.80;;
29416;SDS011;28421;51.030;4.006;2022-11-24T19:29:10;14.98;;;3.75;;
29416;SDS011;28421;51.030;4.006;2022-11-24T19:31:35;21.70;;;3.97;;
29416;SDS011;28421;51.030;4.006;2022-11-24T19:34:05;14.15;;;4.30;;
29416;SDS011;28421;51.030;4.006;2022-11-24T19:36:31;16.25;;;3.63;;
29416;SDS011;28421;51.030;4.006;2022-11-24T19:38:57;19.55;;;4.47;;
29416;SDS011;28421;51.030;4.006;2022-11-24T19:41:24;18.42;;;3.92;;
29416;SDS011;28421;51.030;4.006;2022-11-24T19:43:53;13.63;;;3.85;;
29416;SDS011;28421;51.030;4.006;2022-11-24T19:46:19;15.75;;;4.93;;
29416;SDS011;28421;51.030;4.006;2022-11-24T19:48:46;20.83;;;4.30;;
29416;SDS011;28421;51.030;4.006;2022-11-24T19:51:21;22.70;;;3.92;;
29416;SDS011;28421;51.030;4.006;2022-11-24T19:53:49;10.55;;;3.67;;
29416;SDS011;28421;51.030;4.006;2022-11-24T19:56:19;13.52;;;4.13;;
29416;SDS011;28421;51.030;4.006;2022-11-24T19:58:46;8.13;;;3.60;;
29416;SDS011;28421;51.030;4.006;2022-11-24T20:01:13;20.38;;;5.85;;
29416;SDS011;28421;51.030;4.006;2022-11-24T20:03:40;20.85;;;4.88;;
29416;SDS011;28421;51.030;4.006;2022-11-24T20:06:08;19.65;;;4.85;;
29416;SDS011;28421;51.030;4.006;2022-11-24T20:08:35;22.05;;;3.35;;
29416;SDS011;28421;51.030;4.006;2022-11-24T20:11:03;32.65;;;9.57;;
29416;SDS011;28421;51.030;4.006;2022-11-24T20:13:36;22.13;;;5.13;;
29416;SDS011;28421;51.030;4.006;2022-11-24T20:16:03;27.85;;;4.57;;
29416;SDS011;28421;51.030;4.006;2022-11-24T20:18:33;11.20;;;3.47;;
29416;SDS011;28421;51.030;4.006;2022-11-24T20:21:02;15.70;;;4.40;;
29416;SDS011;28421;51.030;4.006;2022-11-24T20:23:29;19.70;;;4.78;;
29416;SDS011;28421;51.030;4.006;2022-11-24T20:25:54;14.93;;;3.72;;
29416;SDS011;28421;51.030;4.006;2022-11-24T20:28:20;17.63;;;4.65;;
29416;SDS011;28421;51.030;4.006;2022-11-24T20:30:46;16.25;;;3.90;;
29416;SDS011;28421;51.030;4.006;2022-11-24T20:33:12;25.13;;;4.20;;
29416;SDS011;28421;51.030;4.006;2022-11-24T20:35:37;18.38;;;4.68;;
29416;SDS011;28421;51.030;4.006;2022-11-24T20:38:04;13.02;;;3.15;;
29416;SDS011;28421;51.030;4.006;2022-11-24T20:40:29;13.02;;;3.75;;
29416;SDS011;28421;51.030;4.006;2022-11-24T20:42:54;10.77;;;3.25;;
29416;SDS011;28421;51.030;4.006;2022-11-24T20:45:20;25.27;;;4.15;;
29416;SDS011;28421;51.030;4.006;2022-11-24T20:47:45;21.73;;;4.38;;
29416;SDS011;28421;51.030;4.006;2022-11-24T20:50:10;15.20;;;3.38;;
29416;SDS011;28421;51.030;4.006;2022-11-24T20:52:36;20.38;;;4.63;;
29416;SDS011;28421;51.030;4.006;2022-11-24T20:55:01;18.73;;;5.50;;
29416;SDS011;28421;51.030;4.006;2022-11-24T20:57:28;16.70;;;3.55;;
29416;SDS011;28421;51.030;4.006;2022-11-24T20:59:53;19.25;;;4.93;;
29416;SDS011;28421;51.030;4.006;2022-11-24T21:02:19;10.85;;;3.97;;
29416;SDS011;28421;51.030;4.006;2022-11-24T21:04:45;14.68;;;4.43;;
29416;SDS011;28421;51.030;4.006;2022-11-24T21:07:10;15.60;;;3.50;;
29416;SDS011;28421;51.030;4.006;2022-11-24T21:09:37;22.52;;;3.67;;
29416;SDS011;28421;51.030;4.006;2022-11-24T21:12:03;14.45;;;3.17;;
29416;SDS011;28421;51.030;4.006;2022-11-24T21:14:29;19.48;;;3.78;;
29416;SDS011;28421;51.030;4.006;2022-11-24T21:16:54;18.58;;;3.63;;
29416;SDS011;28421;51.030;4.006;2022-11-24T21:19:20;16.67;;;3.17;;
29416;SDS011;28421;51.030;4.006;2022-11-24T21:21:45;8.00;;;3.30;;
29416;SDS011;28421;51.030;4.006;2022-11-24T21:24:13;19.05;;;4.28;;
29416;SDS011;28421;51.030;4.006;2022-11-24T21:26:40;11.80;;;3.20;;
29416;SDS011;28421;51.030;4.006;2022-11-24T21:29:07;18.83;;;3.88;;
29416;SDS011;28421;51.030;4.006;2022-11-24T21:31:34;13.30;;;3.38;;
29416;SDS011;28421;51.030;4.006;2022-11-24T21:34:01;12.48;;;3.15;;
29416;SDS011;28421;51.030;4.006;2022-11-24T21:36:26;19.02;;;4.15;;
29416;SDS011;28421;51.030;4.006;2022-11-24T21:38:55;16.52;;;4.45;;
29416;SDS011;28421;51.030;4.006;2022-11-24T21:41:22;18.38;;;4.03;;
29416;SDS011;28421;51.030;4.006;2022-11-24T21:43:53;17.48;;;4.07;;
29416;SDS011;28421;51.030;4.006;2022-11-24T21:46:22;14.05;;;3.05;;
29416;SDS011;28421;51.030;4.006;2022-11-24T21:48:48;14.90;;;3.47;;
29416;SDS011;28421;51.030;4.006;2022-11-24T21:51:15;15.00;;;3.08;;
29416;SDS011;28421;51.030;4.006;2022-11-24T21:53:42;15.93;;;4.68;;
29416;SDS011;28421;51.030;4.006;2022-11-24T21:56:09;16.25;;;4.40;;
29416;SDS011;28421;51.030;4.006;2022-11-24T21:58:37;14.02;;;4.03;;
29416;SDS011;28421;51.030;4.006;2022-11-24T22:01:08;24.63;;;4.07;;
